sensor_id;sensor_type;location;lat;lon;timestamp;temperature;humidity
2873;DHT22;1444;49.166;7.312;2022-09-20T00:03:40;9.40;93.40
2873;DHT22;1444;49.166;7.312;2022-09-20T00:06:10;9.50;93.40
2873;DHT22;1444;49.166;7.312;2022-09-20T00:08:38;9.40;93.10
2873;DHT22;1444;49.166;7.312;2022-09-20T00:11:06;9.30;92.90
2873;DHT22;1444;49.166;7.312;2022-09-20T00:13:36;9.10;92.90
2873;DHT22;1444;49.166;7.312;2022-09-20T00:16:04;9.00;93.40
2873;DHT22;1444;49.166;7.312;2022-09-20T00:20:58;9.00;93.30
2873;DHT22;1444;49.166;7.312;2022-09-20T00:23:26;9.00;93.60
2873;DHT22;1444;49.166;7.312;2022-09-20T00:25:54;9.00;93.50
2873;DHT22;1444;49.166;7.312;2022-09-20T00:30:50;9.10;93.50
2873;DHT22;1444;49.166;7.312;2022-09-20T00:33:17;9.20;93.40
2873;DHT22;1444;49.166;7.312;2022-09-20T00:35:44;10.20;93.20
2873;DHT22;1444;49.166;7.312;2022-09-20T00:38:10;9.10;93.20
2873;DHT22;1444;49.166;7.312;2022-09-20T00:40:39;9.00;93.10
2873;DHT22;1444;49.166;7.312;2022-09-20T00:43:08;8.90;93.30
2873;DHT22;1444;49.166;7.312;2022-09-20T00:45:36;8.90;93.20
2873;DHT22;1444;49.166;7.312;2022-09-20T00:48:05;8.90;93.10
2873;DHT22;1444;49.166;7.312;2022-09-20T00:50:40;8.90;93.20
2873;DHT22;1444;49.166;7.312;2022-09-20T00:53:11;8.90;93.20
2873;DHT22;1444;49.166;7.312;2022-09-20T00:55:43;8.90;93.00
2873;DHT22;1444;49.166;7.312;2022-09-20T00:58:11;8.90;92.90
2873;DHT22;1444;49.166;7.312;2022-09-20T01:03:08;8.90;92.90
2873;DHT22;1444;49.166;7.312;2022-09-20T01:05:36;8.90;92.90
2873;DHT22;1444;49.166;7.312;2022-09-20T01:08:04;8.80;92.80
2873;DHT22;1444;49.166;7.312;2022-09-20T01:10:31;8.80;92.70
2873;DHT22;1444;49.166;7.312;2022-09-20T01:12:59;8.80;92.70
2873;DHT22;1444;49.166;7.312;2022-09-20T01:15:27;8.80;92.80
2873;DHT22;1444;49.166;7.312;2022-09-20T01:17:57;8.80;92.80
2873;DHT22;1444;49.166;7.312;2022-09-20T01:20:27;8.60;92.90
2873;DHT22;1444;49.166;7.312;2022-09-20T01:25:53;8.60;92.90
2873;DHT22;1444;49.166;7.312;2022-09-20T01:28:25;8.60;93.00
2873;DHT22;1444;49.166;7.312;2022-09-20T01:35:59;8.50;93.10
2873;DHT22;1444;49.166;7.312;2022-09-20T01:38:34;8.50;92.90
2873;DHT22;1444;49.166;7.312;2022-09-20T01:41:06;8.50;93.10
2873;DHT22;1444;49.166;7.312;2022-09-20T01:46:17;8.50;93.10
2873;DHT22;1444;49.166;7.312;2022-09-20T01:48:47;8.40;92.90
2873;DHT22;1444;49.166;7.312;2022-09-20T01:57:15;8.40;93.00
2873;DHT22;1444;49.166;7.312;2022-09-20T02:00:01;8.30;92.90
2873;DHT22;1444;49.166;7.312;2022-09-20T02:02:49;8.30;93.00
2873;DHT22;1444;49.166;7.312;2022-09-20T02:09:12;8.50;93.00
2873;DHT22;1444;49.166;7.312;2022-09-20T02:11:52;8.20;92.80
2873;DHT22;1444;49.166;7.312;2022-09-20T02:14:34;8.10;92.90
2873;DHT22;1444;49.166;7.312;2022-09-20T02:17:12;8.10;92.80
2873;DHT22;1444;49.166;7.312;2022-09-20T02:20:06;8.10;92.80
2873;DHT22;1444;49.166;7.312;2022-09-20T02:22:43;8.00;92.70
2873;DHT22;1444;49.166;7.312;2022-09-20T02:25:23;8.00;92.60
2873;DHT22;1444;49.166;7.312;2022-09-20T02:28:04;8.00;92.60
2873;DHT22;1444;49.166;7.312;2022-09-20T02:30:45;8.00;92.60
2873;DHT22;1444;49.166;7.312;2022-09-20T02:33:28;7.90;92.90
2873;DHT22;1444;49.166;7.312;2022-09-20T02:36:10;7.90;93.10
2873;DHT22;1444;49.166;7.312;2022-09-20T02:38:48;7.90;93.20
2873;DHT22;1444;49.166;7.312;2022-09-20T02:41:40;7.90;93.00
2873;DHT22;1444;49.166;7.312;2022-09-20T02:46:47;7.90;93.20
2873;DHT22;1444;49.166;7.312;2022-09-20T02:49:25;7.90;93.20
2873;DHT22;1444;49.166;7.312;2022-09-20T02:51:56;7.90;93.30
2873;DHT22;1444;49.166;7.312;2022-09-20T02:54:34;7.90;93.40
2873;DHT22;1444;49.166;7.312;2022-09-20T02:57:14;7.80;93.60
2873;DHT22;1444;49.166;7.312;2022-09-20T02:59:46;7.90;93.90
2873;DHT22;1444;49.166;7.312;2022-09-20T03:04:55;7.90;93.60
2873;DHT22;1444;49.166;7.312;2022-09-20T03:07:29;8.00;93.40
2873;DHT22;1444;49.166;7.312;2022-09-20T03:10:10;8.10;93.70
2873;DHT22;1444;49.166;7.312;2022-09-20T03:17:48;8.00;94.40
2873;DHT22;1444;49.166;7.312;2022-09-20T03:20:28;8.10;94.50
2873;DHT22;1444;49.166;7.312;2022-09-20T03:23:00;8.10;94.70
2873;DHT22;1444;49.166;7.312;2022-09-20T03:28:22;8.00;95.20
2873;DHT22;1444;49.166;7.312;2022-09-20T03:33:28;8.10;95.10
2873;DHT22;1444;49.166;7.312;2022-09-20T03:38:51;8.10;95.50
2873;DHT22;1444;49.166;7.312;2022-09-20T03:41:45;8.10;95.50
2873;DHT22;1444;49.166;7.312;2022-09-20T03:44:30;8.00;96.00
2873;DHT22;1444;49.166;7.312;2022-09-20T03:47:11;8.00;96.50
2873;DHT22;1444;49.166;7.312;2022-09-20T03:50:12;7.90;96.60
2873;DHT22;1444;49.166;7.312;2022-09-20T03:52:56;8.00;96.70
2873;DHT22;1444;49.166;7.312;2022-09-20T03:55:53;8.10;96.90
2873;DHT22;1444;49.166;7.312;2022-09-20T04:01:07;8.10;97.60
2873;DHT22;1444;49.166;7.312;2022-09-20T04:03:47;8.10;97.60
2873;DHT22;1444;49.166;7.312;2022-09-20T04:06:33;8.20;97.70
2873;DHT22;1444;49.166;7.312;2022-09-20T04:09:31;8.20;97.80
2873;DHT22;1444;49.166;7.312;2022-09-20T04:12:04;8.20;98.10
2873;DHT22;1444;49.166;7.312;2022-09-20T04:14:39;8.10;98.30
2873;DHT22;1444;49.166;7.312;2022-09-20T04:17:21;8.00;99.10
2873;DHT22;1444;49.166;7.312;2022-09-20T04:19:55;8.10;99.20
2873;DHT22;1444;49.166;7.312;2022-09-20T04:22:24;8.20;99.10
2873;DHT22;1444;49.166;7.312;2022-09-20T04:25:00;8.30;98.60
2873;DHT22;1444;49.166;7.312;2022-09-20T04:27:30;8.50;98.80
2873;DHT22;1444;49.166;7.312;2022-09-20T04:30:03;8.60;98.60
2873;DHT22;1444;49.166;7.312;2022-09-20T04:32:35;8.80;98.30
2873;DHT22;1444;49.166;7.312;2022-09-20T04:35:17;8.90;97.90
2873;DHT22;1444;49.166;7.312;2022-09-20T04:40:53;9.10;98.10
2873;DHT22;1444;49.166;7.312;2022-09-20T04:43:46;9.10;97.90
2873;DHT22;1444;49.166;7.312;2022-09-20T04:46:36;9.20;97.60
2873;DHT22;1444;49.166;7.312;2022-09-20T04:49:38;9.30;97.60
2873;DHT22;1444;49.166;7.312;2022-09-20T04:52:41;9.40;97.80
2873;DHT22;1444;49.166;7.312;2022-09-20T04:55:40;9.40;97.90
2873;DHT22;1444;49.166;7.312;2022-09-20T05:01:48;9.50;97.70
2873;DHT22;1444;49.166;7.312;2022-09-20T05:04:43;9.50;97.70
2873;DHT22;1444;49.166;7.312;2022-09-20T05:08:00;9.50;98.00
2873;DHT22;1444;49.166;7.312;2022-09-20T05:10:55;9.50;98.10
2873;DHT22;1444;49.166;7.312;2022-09-20T05:13:34;9.40;98.20
2873;DHT22;1444;49.166;7.312;2022-09-20T05:21:49;9.40;98.40
2873;DHT22;1444;49.166;7.312;2022-09-20T05:24:40;9.50;98.30
2873;DHT22;1444;49.166;7.312;2022-09-20T05:27:21;9.60;98.20
2873;DHT22;1444;49.166;7.312;2022-09-20T05:29:58;9.50;98.40
2873;DHT22;1444;49.166;7.312;2022-09-20T05:32:32;9.60;98.20
2873;DHT22;1444;49.166;7.312;2022-09-20T05:35:04;9.60;98.80
2873;DHT22;1444;49.166;7.312;2022-09-20T05:37:38;9.70;99.00
2873;DHT22;1444;49.166;7.312;2022-09-20T05:40:20;9.70;98.90
2873;DHT22;1444;49.166;7.312;2022-09-20T05:42:54;9.70;98.90
2873;DHT22;1444;49.166;7.312;2022-09-20T05:50:46;9.90;98.50
2873;DHT22;1444;49.166;7.312;2022-09-20T05:53:36;10.00;97.70
2873;DHT22;1444;49.166;7.312;2022-09-20T05:56:15;10.10;97.70
2873;DHT22;1444;49.166;7.312;2022-09-20T05:58:54;10.10;97.60
2873;DHT22;1444;49.166;7.312;2022-09-20T06:01:32;10.20;97.60
2873;DHT22;1444;49.166;7.312;2022-09-20T06:04:10;10.30;97.60
2873;DHT22;1444;49.166;7.312;2022-09-20T06:06:46;10.30;97.50
2873;DHT22;1444;49.166;7.312;2022-09-20T06:12:11;10.40;97.80
2873;DHT22;1444;49.166;7.312;2022-09-20T06:17:23;10.50;98.00
2873;DHT22;1444;49.166;7.312;2022-09-20T06:19:59;10.90;98.30
2873;DHT22;1444;49.166;7.312;2022-09-20T06:22:35;11.00;99.10
2873;DHT22;1444;49.166;7.312;2022-09-20T06:25:12;11.40;98.80
2873;DHT22;1444;49.166;7.312;2022-09-20T06:27:43;12.30;98.90
2873;DHT22;1444;49.166;7.312;2022-09-20T06:30:16;13.50;98.20
2873;DHT22;1444;49.166;7.312;2022-09-20T06:32:56;16.90;96.20
2873;DHT22;1444;49.166;7.312;2022-09-20T06:35:29;14.70;93.50
2873;DHT22;1444;49.166;7.312;2022-09-20T06:40:50;15.70;93.80
2873;DHT22;1444;49.166;7.312;2022-09-20T06:43:40;16.80;92.70
2873;DHT22;1444;49.166;7.312;2022-09-20T06:46:08;17.30;91.30
2873;DHT22;1444;49.166;7.312;2022-09-20T06:48:38;17.40;90.00
2873;DHT22;1444;49.166;7.312;2022-09-20T06:53:36;16.70;90.30
2873;DHT22;1444;49.166;7.312;2022-09-20T06:56:07;16.30;90.80
2873;DHT22;1444;49.166;7.312;2022-09-20T06:58:34;14.40;90.60
2873;DHT22;1444;49.166;7.312;2022-09-20T07:01:00;15.60;91.90
2873;DHT22;1444;49.166;7.312;2022-09-20T07:03:28;16.00;92.70
2873;DHT22;1444;49.166;7.312;2022-09-20T07:05:56;14.50;91.40
2873;DHT22;1444;49.166;7.312;2022-09-20T07:08:23;16.70;91.60
2873;DHT22;1444;49.166;7.312;2022-09-20T07:10:49;16.70;91.50
2873;DHT22;1444;49.166;7.312;2022-09-20T07:13:16;16.40;91.30
2873;DHT22;1444;49.166;7.312;2022-09-20T07:20:40;15.80;93.40
2873;DHT22;1444;49.166;7.312;2022-09-20T07:23:07;16.40;94.80
2873;DHT22;1444;49.166;7.312;2022-09-20T07:30:29;18.70;90.90
2873;DHT22;1444;49.166;7.312;2022-09-20T07:32:56;18.70;90.20
2873;DHT22;1444;49.166;7.312;2022-09-20T07:35:23;18.50;90.00
2873;DHT22;1444;49.166;7.312;2022-09-20T07:37:56;18.30;90.00
2873;DHT22;1444;49.166;7.312;2022-09-20T07:40:23;18.00;90.20
2873;DHT22;1444;49.166;7.312;2022-09-20T07:42:51;17.60;90.20
2873;DHT22;1444;49.166;7.312;2022-09-20T07:45:18;17.90;90.80
2873;DHT22;1444;49.166;7.312;2022-09-20T07:52:39;16.60;91.60
2873;DHT22;1444;49.166;7.312;2022-09-20T07:55:07;19.50;93.00
2873;DHT22;1444;49.166;7.312;2022-09-20T07:57:35;15.80;91.90
2873;DHT22;1444;49.166;7.312;2022-09-20T08:00:05;15.50;92.80
2873;DHT22;1444;49.166;7.312;2022-09-20T08:02:32;15.50;92.80
2873;DHT22;1444;49.166;7.312;2022-09-20T08:07:26;15.60;93.50
2873;DHT22;1444;49.166;7.312;2022-09-20T08:09:52;15.80;94.70
2873;DHT22;1444;49.166;7.312;2022-09-20T08:12:20;16.10;95.70
2873;DHT22;1444;49.166;7.312;2022-09-20T08:14:47;16.40;94.60
2873;DHT22;1444;49.166;7.312;2022-09-20T08:17:14;16.60;94.10
2873;DHT22;1444;49.166;7.312;2022-09-20T08:19:41;16.80;94.20
2873;DHT22;1444;49.166;7.312;2022-09-20T08:24:37;16.80;92.40
2873;DHT22;1444;49.166;7.312;2022-09-20T08:27:03;16.90;92.70
2873;DHT22;1444;49.166;7.312;2022-09-20T08:34:27;16.60;91.90
2873;DHT22;1444;49.166;7.312;2022-09-20T08:36:54;16.60;92.00
2873;DHT22;1444;49.166;7.312;2022-09-20T08:39:21;16.50;92.50
2873;DHT22;1444;49.166;7.312;2022-09-20T08:41:52;16.60;92.70
2873;DHT22;1444;49.166;7.312;2022-09-20T08:44:24;16.60;92.70
2873;DHT22;1444;49.166;7.312;2022-09-20T08:47:00;19.30;94.00
2873;DHT22;1444;49.166;7.312;2022-09-20T08:51:57;17.00;91.50
2873;DHT22;1444;49.166;7.312;2022-09-20T08:59:21;17.40;91.90
2873;DHT22;1444;49.166;7.312;2022-09-20T09:01:50;17.50;92.10
2873;DHT22;1444;49.166;7.312;2022-09-20T09:04:21;17.50;92.10
2873;DHT22;1444;49.166;7.312;2022-09-20T09:09:18;14.50;90.10
2873;DHT22;1444;49.166;7.312;2022-09-20T09:11:48;18.00;89.00
2873;DHT22;1444;49.166;7.312;2022-09-20T09:17:08;18.40;90.00
2873;DHT22;1444;49.166;7.312;2022-09-20T09:19:45;18.50;88.00
2873;DHT22;1444;49.166;7.312;2022-09-20T09:22:21;18.60;87.80
2873;DHT22;1444;49.166;7.312;2022-09-20T09:25:07;18.60;88.30
2873;DHT22;1444;49.166;7.312;2022-09-20T09:27:33;18.60;87.10
2873;DHT22;1444;49.166;7.312;2022-09-20T09:30:01;18.70;88.00
2873;DHT22;1444;49.166;7.312;2022-09-20T09:32:29;18.70;88.10
2873;DHT22;1444;49.166;7.312;2022-09-20T09:35:22;18.80;87.80
2873;DHT22;1444;49.166;7.312;2022-09-20T09:37:53;18.70;85.00
2873;DHT22;1444;49.166;7.312;2022-09-20T09:40:21;18.20;83.40
2873;DHT22;1444;49.166;7.312;2022-09-20T09:42:49;18.10;88.40
2873;DHT22;1444;49.166;7.312;2022-09-20T09:45:30;18.20;87.70
2873;DHT22;1444;49.166;7.312;2022-09-20T09:48:01;18.50;87.80
2873;DHT22;1444;49.166;7.312;2022-09-20T09:53:04;18.60;85.00
2873;DHT22;1444;49.166;7.312;2022-09-20T10:00:40;18.90;86.00
2873;DHT22;1444;49.166;7.312;2022-09-20T10:03:24;19.00;84.30
2873;DHT22;1444;49.166;7.312;2022-09-20T10:08:35;19.20;85.40
2873;DHT22;1444;49.166;7.312;2022-09-20T10:13:40;19.10;83.20
2873;DHT22;1444;49.166;7.312;2022-09-20T10:16:16;19.00;83.90
2873;DHT22;1444;49.166;7.312;2022-09-20T10:18:49;18.80;84.60
2873;DHT22;1444;49.166;7.312;2022-09-20T10:21:37;18.60;84.90
2873;DHT22;1444;49.166;7.312;2022-09-20T10:24:15;18.60;86.00
2873;DHT22;1444;49.166;7.312;2022-09-20T10:29:26;18.40;86.90
2873;DHT22;1444;49.166;7.312;2022-09-20T10:32:04;18.50;87.00
2873;DHT22;1444;49.166;7.312;2022-09-20T10:37:39;18.40;86.20
2873;DHT22;1444;49.166;7.312;2022-09-20T10:40:19;18.50;85.60
2873;DHT22;1444;49.166;7.312;2022-09-20T10:42:53;18.50;86.00
2873;DHT22;1444;49.166;7.312;2022-09-20T10:48:16;18.40;84.80
2873;DHT22;1444;49.166;7.312;2022-09-20T10:50:50;18.40;86.30
2873;DHT22;1444;49.166;7.312;2022-09-20T10:53:30;18.30;85.60
2873;DHT22;1444;49.166;7.312;2022-09-20T10:56:12;18.40;86.50
2873;DHT22;1444;49.166;7.312;2022-09-20T10:59:15;18.60;87.20
2873;DHT22;1444;49.166;7.312;2022-09-20T11:01:54;18.70;85.20
2873;DHT22;1444;49.166;7.312;2022-09-20T11:04:42;18.90;87.00
2873;DHT22;1444;49.166;7.312;2022-09-20T11:07:17;19.20;83.60
2873;DHT22;1444;49.166;7.312;2022-09-20T11:09:50;19.40;84.80
2873;DHT22;1444;49.166;7.312;2022-09-20T11:12:24;19.60;86.80
2873;DHT22;1444;49.166;7.312;2022-09-20T11:14:54;19.70;83.30
2873;DHT22;1444;49.166;7.312;2022-09-20T11:17:24;19.80;82.80
2873;DHT22;1444;49.166;7.312;2022-09-20T11:22:27;20.00;84.60
2873;DHT22;1444;49.166;7.312;2022-09-20T11:25:03;20.20;83.30
2873;DHT22;1444;49.166;7.312;2022-09-20T11:27:33;20.00;79.00
2873;DHT22;1444;49.166;7.312;2022-09-20T11:30:05;19.90;81.20
2873;DHT22;1444;49.166;7.312;2022-09-20T11:32:35;20.00;81.90
2873;DHT22;1444;49.166;7.312;2022-09-20T11:35:26;20.00;81.30
2873;DHT22;1444;49.166;7.312;2022-09-20T11:38:02;19.80;78.50
2873;DHT22;1444;49.166;7.312;2022-09-20T11:40:34;19.80;80.10
2873;DHT22;1444;49.166;7.312;2022-09-20T11:45:32;19.50;78.30
2873;DHT22;1444;49.166;7.312;2022-09-20T11:48:02;19.40;79.30
2873;DHT22;1444;49.166;7.312;2022-09-20T11:50:46;19.30;80.80
2873;DHT22;1444;49.166;7.312;2022-09-20T11:53:30;19.20;80.00
2873;DHT22;1444;49.166;7.312;2022-09-20T11:56:04;19.10;81.30
2873;DHT22;1444;49.166;7.312;2022-09-20T11:58:43;19.10;80.40
2873;DHT22;1444;49.166;7.312;2022-09-20T12:03:44;19.00;80.40
2873;DHT22;1444;49.166;7.312;2022-09-20T12:06:25;19.20;82.70
2873;DHT22;1444;49.166;7.312;2022-09-20T12:08:53;19.30;80.70
2873;DHT22;1444;49.166;7.312;2022-09-20T12:11:29;19.40;78.70
2873;DHT22;1444;49.166;7.312;2022-09-20T12:14:01;19.70;82.60
2873;DHT22;1444;49.166;7.312;2022-09-20T12:16:39;20.10;80.10
2873;DHT22;1444;49.166;7.312;2022-09-20T12:19:08;20.50;79.60
2873;DHT22;1444;49.166;7.312;2022-09-20T12:24:40;20.90;76.50
2873;DHT22;1444;49.166;7.312;2022-09-20T12:27:22;21.10;78.10
2873;DHT22;1444;49.166;7.312;2022-09-20T12:32:45;20.90;77.20
2873;DHT22;1444;49.166;7.312;2022-09-20T12:38:33;20.70;75.90
2873;DHT22;1444;49.166;7.312;2022-09-20T12:41:02;20.60;75.80
2873;DHT22;1444;49.166;7.312;2022-09-20T12:43:32;20.50;75.40
2873;DHT22;1444;49.166;7.312;2022-09-20T12:46:00;20.40;74.20
2873;DHT22;1444;49.166;7.312;2022-09-20T12:51:02;20.10;75.70
2873;DHT22;1444;49.166;7.312;2022-09-20T12:53:58;19.70;77.50
2873;DHT22;1444;49.166;7.312;2022-09-20T12:56:26;19.30;80.10
2873;DHT22;1444;49.166;7.312;2022-09-20T12:58:55;18.90;81.60
2873;DHT22;1444;49.166;7.312;2022-09-20T13:01:35;18.60;84.50
2873;DHT22;1444;49.166;7.312;2022-09-20T13:09:53;18.00;87.90
2873;DHT22;1444;49.166;7.312;2022-09-20T13:12:20;17.90;87.90
2873;DHT22;1444;49.166;7.312;2022-09-20T13:14:48;18.00;88.10
2873;DHT22;1444;49.166;7.312;2022-09-20T13:17:21;17.90;87.40
2873;DHT22;1444;49.166;7.312;2022-09-20T13:19:50;16.90;87.00
2873;DHT22;1444;49.166;7.312;2022-09-20T13:22:21;17.90;87.70
2873;DHT22;1444;49.166;7.312;2022-09-20T13:24:51;17.90;87.40
2873;DHT22;1444;49.166;7.312;2022-09-20T13:27:21;18.00;87.50
2873;DHT22;1444;49.166;7.312;2022-09-20T13:29:50;18.00;87.70
2873;DHT22;1444;49.166;7.312;2022-09-20T13:32:22;18.10;86.90
2873;DHT22;1444;49.166;7.312;2022-09-20T13:35:04;18.20;86.80
2873;DHT22;1444;49.166;7.312;2022-09-20T13:40:00;18.30;84.30
2873;DHT22;1444;49.166;7.312;2022-09-20T13:42:28;18.40;84.80
2873;DHT22;1444;49.166;7.312;2022-09-20T13:44:57;18.50;84.60
2873;DHT22;1444;49.166;7.312;2022-09-20T13:52:22;18.50;81.40
2873;DHT22;1444;49.166;7.312;2022-09-20T13:54:48;18.50;81.10
2873;DHT22;1444;49.166;7.312;2022-09-20T13:57:20;18.50;80.40
2873;DHT22;1444;49.166;7.312;2022-09-20T13:59:48;18.50;81.20
2873;DHT22;1444;49.166;7.312;2022-09-20T14:02:21;18.40;80.80
2873;DHT22;1444;49.166;7.312;2022-09-20T14:04:50;18.50;82.00
2873;DHT22;1444;49.166;7.312;2022-09-20T14:07:19;18.50;82.30
2873;DHT22;1444;49.166;7.312;2022-09-20T14:09:46;18.40;80.90
2873;DHT22;1444;49.166;7.312;2022-09-20T14:12:13;18.40;82.20
2873;DHT22;1444;49.166;7.312;2022-09-20T14:14:40;18.40;82.30
2873;DHT22;1444;49.166;7.312;2022-09-20T14:17:07;18.40;82.50
2873;DHT22;1444;49.166;7.312;2022-09-20T14:19:39;18.30;82.00
2873;DHT22;1444;49.166;7.312;2022-09-20T14:22:07;18.40;81.40
2873;DHT22;1444;49.166;7.312;2022-09-20T14:27:17;18.50;82.00
2873;DHT22;1444;49.166;7.312;2022-09-20T14:32:25;18.50;81.90
2873;DHT22;1444;49.166;7.312;2022-09-20T14:37:28;18.50;79.80
2873;DHT22;1444;49.166;7.312;2022-09-20T14:39:57;18.60;80.00
2873;DHT22;1444;49.166;7.312;2022-09-20T14:42:40;18.80;82.50
2873;DHT22;1444;49.166;7.312;2022-09-20T14:45:20;16.80;78.90
2873;DHT22;1444;49.166;7.312;2022-09-20T14:47:59;19.40;82.50
2873;DHT22;1444;49.166;7.312;2022-09-20T14:50:30;19.80;82.80
2873;DHT22;1444;49.166;7.312;2022-09-20T14:55:26;20.30;77.80
2873;DHT22;1444;49.166;7.312;2022-09-20T14:57:59;19.40;78.70
2873;DHT22;1444;49.166;7.312;2022-09-20T15:00:26;19.20;76.20
2873;DHT22;1444;49.166;7.312;2022-09-20T15:05:24;18.90;77.90
2873;DHT22;1444;49.166;7.312;2022-09-20T15:07:53;18.70;78.70
2873;DHT22;1444;49.166;7.312;2022-09-20T15:10:20;18.50;79.40
2873;DHT22;1444;49.166;7.312;2022-09-20T15:12:47;18.60;80.80
2873;DHT22;1444;49.166;7.312;2022-09-20T15:17:44;18.20;80.30
2873;DHT22;1444;49.166;7.312;2022-09-20T15:25:12;18.20;81.60
2873;DHT22;1444;49.166;7.312;2022-09-20T15:32:36;17.90;80.20
2873;DHT22;1444;49.166;7.312;2022-09-20T15:35:03;17.90;80.90
2873;DHT22;1444;49.166;7.312;2022-09-20T15:37:30;17.80;80.20
2873;DHT22;1444;49.166;7.312;2022-09-20T15:39:57;17.80;80.50
2873;DHT22;1444;49.166;7.312;2022-09-20T15:42:25;17.80;81.50
2873;DHT22;1444;49.166;7.312;2022-09-20T15:44:51;17.80;81.80
2873;DHT22;1444;49.166;7.312;2022-09-20T15:47:18;17.90;81.20
2873;DHT22;1444;49.166;7.312;2022-09-20T15:49:48;17.80;81.60
2873;DHT22;1444;49.166;7.312;2022-09-20T15:52:14;17.70;81.70
2873;DHT22;1444;49.166;7.312;2022-09-20T15:54:41;17.80;82.20
2873;DHT22;1444;49.166;7.312;2022-09-20T15:57:08;17.80;82.70
2873;DHT22;1444;49.166;7.312;2022-09-20T15:59:36;17.80;82.90
2873;DHT22;1444;49.166;7.312;2022-09-20T16:02:03;17.80;81.30
2873;DHT22;1444;49.166;7.312;2022-09-20T16:04:29;17.80;81.90
2873;DHT22;1444;49.166;7.312;2022-09-20T16:09:25;17.70;79.90
2873;DHT22;1444;49.166;7.312;2022-09-20T16:11:51;17.70;79.80
2873;DHT22;1444;49.166;7.312;2022-09-20T16:14:23;17.70;81.30
2873;DHT22;1444;49.166;7.312;2022-09-20T16:16:51;17.80;82.30
2873;DHT22;1444;49.166;7.312;2022-09-20T16:19:18;17.80;81.80
2873;DHT22;1444;49.166;7.312;2022-09-20T16:24:14;17.80;82.40
2873;DHT22;1444;49.166;7.312;2022-09-20T16:26:41;17.80;83.70
2873;DHT22;1444;49.166;7.312;2022-09-20T16:29:08;17.80;82.80
2873;DHT22;1444;49.166;7.312;2022-09-20T16:31:37;17.80;83.10
2873;DHT22;1444;49.166;7.312;2022-09-20T16:34:10;17.80;83.40
2873;DHT22;1444;49.166;7.312;2022-09-20T16:36:38;17.80;84.00
2873;DHT22;1444;49.166;7.312;2022-09-20T16:39:06;17.80;84.40
2873;DHT22;1444;49.166;7.312;2022-09-20T16:41:33;17.60;84.30
2873;DHT22;1444;49.166;7.312;2022-09-20T16:44:01;17.50;84.00
2873;DHT22;1444;49.166;7.312;2022-09-20T16:46:28;17.40;84.30
2873;DHT22;1444;49.166;7.312;2022-09-20T16:48:56;17.40;84.40
2873;DHT22;1444;49.166;7.312;2022-09-20T16:51:29;17.30;84.20
2873;DHT22;1444;49.166;7.312;2022-09-20T16:54:00;17.30;84.70
2873;DHT22;1444;49.166;7.312;2022-09-20T16:56:29;17.30;85.30
2873;DHT22;1444;49.166;7.312;2022-09-20T16:58:56;17.30;85.30
2873;DHT22;1444;49.166;7.312;2022-09-20T17:01:23;17.30;86.90
2873;DHT22;1444;49.166;7.312;2022-09-20T17:03:49;17.20;86.60
2873;DHT22;1444;49.166;7.312;2022-09-20T17:06:17;17.00;86.60
2873;DHT22;1444;49.166;7.312;2022-09-20T17:08:45;16.90;86.60
2873;DHT22;1444;49.166;7.312;2022-09-20T17:11:14;16.70;87.30
2873;DHT22;1444;49.166;7.312;2022-09-20T17:13:43;16.60;87.70
2873;DHT22;1444;49.166;7.312;2022-09-20T17:16:13;16.50;87.70
2873;DHT22;1444;49.166;7.312;2022-09-20T17:18:40;16.30;88.10
2873;DHT22;1444;49.166;7.312;2022-09-20T17:21:09;16.20;88.70
2873;DHT22;1444;49.166;7.312;2022-09-20T17:23:38;16.20;89.00
2873;DHT22;1444;49.166;7.312;2022-09-20T17:26:09;16.30;90.10
2873;DHT22;1444;49.166;7.312;2022-09-20T17:28:38;16.30;90.00
2873;DHT22;1444;49.166;7.312;2022-09-20T17:33:34;16.10;90.20
2873;DHT22;1444;49.166;7.312;2022-09-20T17:36:02;16.00;90.70
2873;DHT22;1444;49.166;7.312;2022-09-20T17:38:30;16.00;90.80
2873;DHT22;1444;49.166;7.312;2022-09-20T17:40:59;16.10;90.60
2873;DHT22;1444;49.166;7.312;2022-09-20T17:43:27;16.10;90.70
2873;DHT22;1444;49.166;7.312;2022-09-20T17:48:30;16.10;90.60
2873;DHT22;1444;49.166;7.312;2022-09-20T17:53:25;16.20;91.30
2873;DHT22;1444;49.166;7.312;2022-09-20T18:00:48;16.10;91.60
2873;DHT22;1444;49.166;7.312;2022-09-20T18:03:15;16.10;91.60
2873;DHT22;1444;49.166;7.312;2022-09-20T18:13:03;16.10;91.70
2873;DHT22;1444;49.166;7.312;2022-09-20T18:15:31;16.10;91.90
2873;DHT22;1444;49.166;7.312;2022-09-20T18:18:00;16.10;92.00
2873;DHT22;1444;49.166;7.312;2022-09-20T18:20:26;16.10;92.00
2873;DHT22;1444;49.166;7.312;2022-09-20T18:22:54;16.00;91.90
2873;DHT22;1444;49.166;7.312;2022-09-20T18:25:20;16.00;92.00
2873;DHT22;1444;49.166;7.312;2022-09-20T18:27:48;16.00;92.10
2873;DHT22;1444;49.166;7.312;2022-09-20T18:35:11;15.80;92.90
2873;DHT22;1444;49.166;7.312;2022-09-20T18:37:37;15.60;93.30
2873;DHT22;1444;49.166;7.312;2022-09-20T18:40:05;15.50;93.10
2873;DHT22;1444;49.166;7.312;2022-09-20T18:42:32;15.50;93.10
2873;DHT22;1444;49.166;7.312;2022-09-20T18:47:26;15.50;93.50
2873;DHT22;1444;49.166;7.312;2022-09-20T18:49:53;15.30;94.10
2873;DHT22;1444;49.166;7.312;2022-09-20T18:52:21;15.30;94.40
2873;DHT22;1444;49.166;7.312;2022-09-20T18:54:48;15.20;94.00
2873;DHT22;1444;49.166;7.312;2022-09-20T18:57:15;15.20;93.90
2873;DHT22;1444;49.166;7.312;2022-09-20T18:59:42;15.20;93.70
2873;DHT22;1444;49.166;7.312;2022-09-20T19:02:27;15.20;93.50
2873;DHT22;1444;49.166;7.312;2022-09-20T19:08:00;15.30;94.40
2873;DHT22;1444;49.166;7.312;2022-09-20T19:10:34;15.20;94.90
2873;DHT22;1444;49.166;7.312;2022-09-20T19:13:13;15.00;95.30
2873;DHT22;1444;49.166;7.312;2022-09-20T19:21:39;14.40;95.70
2873;DHT22;1444;49.166;7.312;2022-09-20T19:24:18;14.30;96.00
2873;DHT22;1444;49.166;7.312;2022-09-20T19:26:47;14.40;95.80
2873;DHT22;1444;49.166;7.312;2022-09-20T19:29:18;14.50;95.70
2873;DHT22;1444;49.166;7.312;2022-09-20T19:31:46;14.50;95.90
2873;DHT22;1444;49.166;7.312;2022-09-20T19:34:18;14.60;95.90
2873;DHT22;1444;49.166;7.312;2022-09-20T19:36:53;14.60;95.60
2873;DHT22;1444;49.166;7.312;2022-09-20T19:44:38;14.80;95.20
2873;DHT22;1444;49.166;7.312;2022-09-20T19:47:18;14.70;95.20
2873;DHT22;1444;49.166;7.312;2022-09-20T19:49:51;14.60;95.10
2873;DHT22;1444;49.166;7.312;2022-09-20T19:54:49;14.70;95.50
2873;DHT22;1444;49.166;7.312;2022-09-20T19:57:18;14.70;95.10
2873;DHT22;1444;49.166;7.312;2022-09-20T19:59:46;14.70;95.70
2873;DHT22;1444;49.166;7.312;2022-09-20T20:02:14;14.70;95.60
2873;DHT22;1444;49.166;7.312;2022-09-20T20:04:41;14.60;95.60
2873;DHT22;1444;49.166;7.312;2022-09-20T20:09:43;14.40;95.90
2873;DHT22;1444;49.166;7.312;2022-09-20T20:12:15;14.20;96.20
2873;DHT22;1444;49.166;7.312;2022-09-20T20:14:48;14.10;96.50
2873;DHT22;1444;49.166;7.312;2022-09-20T20:17:27;14.20;96.20
2873;DHT22;1444;49.166;7.312;2022-09-20T20:20:08;14.20;96.30
2873;DHT22;1444;49.166;7.312;2022-09-20T20:25:44;14.40;96.10
2873;DHT22;1444;49.166;7.312;2022-09-20T20:28:15;16.30;96.90
2873;DHT22;1444;49.166;7.312;2022-09-20T20:33:12;14.40;95.50
2873;DHT22;1444;49.166;7.312;2022-09-20T20:35:40;14.40;95.80
2873;DHT22;1444;49.166;7.312;2022-09-20T20:38:06;14.40;95.40
2873;DHT22;1444;49.166;7.312;2022-09-20T20:40:34;14.40;95.60
2873;DHT22;1444;49.166;7.312;2022-09-20T20:43:01;14.40;95.70
2873;DHT22;1444;49.166;7.312;2022-09-20T20:45:31;14.30;95.80
2873;DHT22;1444;49.166;7.312;2022-09-20T20:47:59;13.90;95.70
2873;DHT22;1444;49.166;7.312;2022-09-20T20:50:26;14.20;95.90
2873;DHT22;1444;49.166;7.312;2022-09-20T20:52:54;14.10;95.80
2873;DHT22;1444;49.166;7.312;2022-09-20T20:55:21;14.10;95.60